sensor_id;sensor_type;location;lat;lon;timestamp;P1;durP1;ratioP1;P2;durP2;ratioP2
52620;SDS011;38515;53.160;6.990;2022-10-16T00:00:32;134.90;;;129.40;;
52620;SDS011;38515;53.160;6.990;2022-10-16T00:02:59;122.45;;;117.20;;
52620;SDS011;38515;53.160;6.990;2022-10-16T00:05:25;145.15;;;139.27;;
52620;SDS011;38515;53.160;6.990;2022-10-16T00:07:51;129.57;;;124.30;;
52620;SDS011;38515;53.160;6.990;2022-10-16T00:10:17;142.98;;;136.63;;
52620;SDS011;38515;53.160;6.990;2022-10-16T00:12:43;133.10;;;126.95;;
52620;SDS011;38515;53.160;6.990;2022-10-16T00:15:09;141.05;;;134.82;;
52620;SDS011;38515;53.160;6.990;2022-10-16T00:17:35;138.68;;;132.88;;
52620;SDS011;38515;53.160;6.990;2022-10-16T00:20:00;159.57;;;152.48;;
52620;SDS011;38515;53.160;6.990;2022-10-16T00:22:27;138.25;;;132.27;;
52620;SDS011;38515;53.160;6.990;2022-10-16T00:24:52;145.73;;;139.30;;
52620;SDS011;38515;53.160;6.990;2022-10-16T00:27:18;139.65;;;133.55;;
52620;SDS011;38515;53.160;6.990;2022-10-16T00:29:44;139.95;;;134.20;;
52620;SDS011;38515;53.160;6.990;2022-10-16T00:32:17;136.30;;;130.07;;
52620;SDS011;38515;53.160;6.990;2022-10-16T00:34:43;146.63;;;140.77;;
52620;SDS011;38515;53.160;6.990;2022-10-16T00:37:09;146.23;;;139.57;;
52620;SDS011;38515;53.160;6.990;2022-10-16T00:39:35;154.90;;;148.60;;
52620;SDS011;38515;53.160;6.990;2022-10-16T00:42:01;153.98;;;147.52;;
52620;SDS011;38515;53.160;6.990;2022-10-16T00:44:45;145.05;;;139.20;;
52620;SDS011;38515;53.160;6.990;2022-10-16T00:47:19;152.05;;;145.43;;
52620;SDS011;38515;53.160;6.990;2022-10-16T00:49:51;142.35;;;136.07;;
52620;SDS011;38515;53.160;6.990;2022-10-16T00:52:23;169.27;;;162.18;;
52620;SDS011;38515;53.160;6.990;2022-10-16T00:54:49;145.35;;;139.50;;
52620;SDS011;38515;53.160;6.990;2022-10-16T00:57:17;140.13;;;134.13;;
52620;SDS011;38515;53.160;6.990;2022-10-16T00:59:43;145.20;;;139.43;;
52620;SDS011;38515;53.160;6.990;2022-10-16T01:02:12;151.82;;;145.85;;
52620;SDS011;38515;53.160;6.990;2022-10-16T01:04:42;136.88;;;130.45;;
52620;SDS011;38515;53.160;6.990;2022-10-16T01:07:16;163.23;;;156.73;;
52620;SDS011;38515;53.160;6.990;2022-10-16T01:09:52;143.05;;;136.95;;
52620;SDS011;38515;53.160;6.990;2022-10-16T01:12:35;153.45;;;147.10;;
52620;SDS011;38515;53.160;6.990;2022-10-16T01:20:01;135.20;;;129.90;;
52620;SDS011;38515;53.160;6.990;2022-10-16T01:22:35;144.48;;;138.52;;
52620;SDS011;38515;53.160;6.990;2022-10-16T01:25:25;137.05;;;130.93;;
52620;SDS011;38515;53.160;6.990;2022-10-16T01:28:05;153.00;;;146.13;;
52620;SDS011;38515;53.160;6.990;2022-10-16T01:30:33;140.00;;;133.63;;
52620;SDS011;38515;53.160;6.990;2022-10-16T01:33:02;150.45;;;144.23;;
52620;SDS011;38515;53.160;6.990;2022-10-16T01:35:36;134.50;;;129.10;;
52620;SDS011;38515;53.160;6.990;2022-10-16T01:38:08;141.70;;;136.00;;
52620;SDS011;38515;53.160;6.990;2022-10-16T01:43:18;195.55;;;187.73;;
52620;SDS011;38515;53.160;6.990;2022-10-16T01:45:47;159.30;;;151.98;;
52620;SDS011;38515;53.160;6.990;2022-10-16T01:48:16;152.13;;;146.15;;
52620;SDS011;38515;53.160;6.990;2022-10-16T01:50:47;156.52;;;149.45;;
52620;SDS011;38515;53.160;6.990;2022-10-16T01:53:18;140.50;;;134.80;;
52620;SDS011;38515;53.160;6.990;2022-10-16T01:55:46;154.20;;;148.20;;
52620;SDS011;38515;53.160;6.990;2022-10-16T01:58:15;208.68;;;200.50;;
52620;SDS011;38515;53.160;6.990;2022-10-16T02:00:42;264.95;;;254.15;;
52620;SDS011;38515;53.160;6.990;2022-10-16T02:03:11;244.15;;;234.05;;
52620;SDS011;38515;53.160;6.990;2022-10-16T02:05:41;323.10;;;309.63;;
52620;SDS011;38515;53.160;6.990;2022-10-16T02:08:08;194.27;;;186.02;;
52620;SDS011;38515;53.160;6.990;2022-10-16T02:10:34;169.48;;;162.13;;
52620;SDS011;38515;53.160;6.990;2022-10-16T02:13:11;256.35;;;245.23;;
52620;SDS011;38515;53.160;6.990;2022-10-16T02:15:41;331.02;;;316.80;;
52620;SDS011;38515;53.160;6.990;2022-10-16T02:18:06;282.42;;;270.58;;
52620;SDS011;38515;53.160;6.990;2022-10-16T02:20:36;236.77;;;226.95;;
52620;SDS011;38515;53.160;6.990;2022-10-16T02:23:12;262.70;;;250.90;;
52620;SDS011;38515;53.160;6.990;2022-10-16T02:25:43;299.95;;;287.63;;
52620;SDS011;38515;53.160;6.990;2022-10-16T02:28:17;252.48;;;242.23;;
52620;SDS011;38515;53.160;6.990;2022-10-16T02:30:52;249.10;;;238.93;;
52620;SDS011;38515;53.160;6.990;2022-10-16T02:33:26;259.17;;;248.55;;
52620;SDS011;38515;53.160;6.990;2022-10-16T02:35:54;303.38;;;290.77;;
52620;SDS011;38515;53.160;6.990;2022-10-16T02:38:22;249.95;;;239.75;;
52620;SDS011;38515;53.160;6.990;2022-10-16T02:40:49;246.52;;;236.32;;
52620;SDS011;38515;53.160;6.990;2022-10-16T02:43:15;284.85;;;273.08;;
52620;SDS011;38515;53.160;6.990;2022-10-16T02:45:41;287.70;;;275.77;;
52620;SDS011;38515;53.160;6.990;2022-10-16T02:48:08;240.40;;;230.18;;
52620;SDS011;38515;53.160;6.990;2022-10-16T02:50:34;269.55;;;257.67;;
52620;SDS011;38515;53.160;6.990;2022-10-16T02:52:59;252.23;;;240.48;;
52620;SDS011;38515;53.160;6.990;2022-10-16T02:55:26;295.85;;;283.73;;
52620;SDS011;38515;53.160;6.990;2022-10-16T02:57:53;302.50;;;290.02;;
52620;SDS011;38515;53.160;6.990;2022-10-16T03:00:19;277.90;;;266.52;;
52620;SDS011;38515;53.160;6.990;2022-10-16T03:02:45;315.15;;;301.60;;
52620;SDS011;38515;53.160;6.990;2022-10-16T03:05:12;250.77;;;240.60;;
52620;SDS011;38515;53.160;6.990;2022-10-16T03:07:39;321.42;;;308.00;;
52620;SDS011;38515;53.160;6.990;2022-10-16T03:10:05;316.90;;;302.70;;
52620;SDS011;38515;53.160;6.990;2022-10-16T03:12:31;306.77;;;294.20;;
52620;SDS011;38515;53.160;6.990;2022-10-16T03:14:58;308.13;;;295.27;;
52620;SDS011;38515;53.160;6.990;2022-10-16T03:17:24;281.83;;;270.35;;
52620;SDS011;38515;53.160;6.990;2022-10-16T03:19:50;306.98;;;294.30;;
52620;SDS011;38515;53.160;6.990;2022-10-16T03:22:16;291.40;;;278.92;;
52620;SDS011;38515;53.160;6.990;2022-10-16T03:24:42;272.17;;;260.70;;
52620;SDS011;38515;53.160;6.990;2022-10-16T03:27:08;286.88;;;274.88;;
52620;SDS011;38515;53.160;6.990;2022-10-16T03:29:34;274.83;;;263.60;;
52620;SDS011;38515;53.160;6.990;2022-10-16T03:32:00;227.15;;;218.00;;
52620;SDS011;38515;53.160;6.990;2022-10-16T03:34:26;281.70;;;269.88;;
52620;SDS011;38515;53.160;6.990;2022-10-16T03:36:53;261.42;;;250.35;;
52620;SDS011;38515;53.160;6.990;2022-10-16T03:39:19;281.83;;;269.90;;
52620;SDS011;38515;53.160;6.990;2022-10-16T03:41:45;257.45;;;246.68;;
52620;SDS011;38515;53.160;6.990;2022-10-16T03:44:11;262.17;;;251.35;;
52620;SDS011;38515;53.160;6.990;2022-10-16T03:46:38;239.38;;;229.88;;
52620;SDS011;38515;53.160;6.990;2022-10-16T03:49:04;260.95;;;249.85;;
52620;SDS011;38515;53.160;6.990;2022-10-16T03:51:30;245.70;;;235.45;;
52620;SDS011;38515;53.160;6.990;2022-10-16T03:53:56;233.65;;;223.98;;
52620;SDS011;38515;53.160;6.990;2022-10-16T03:56:22;252.57;;;242.20;;
52620;SDS011;38515;53.160;6.990;2022-10-16T03:58:47;239.65;;;229.73;;
52620;SDS011;38515;53.160;6.990;2022-10-16T04:01:13;183.13;;;175.43;;
52620;SDS011;38515;53.160;6.990;2022-10-16T04:03:39;172.73;;;165.27;;
52620;SDS011;38515;53.160;6.990;2022-10-16T04:06:05;210.25;;;201.23;;
52620;SDS011;38515;53.160;6.990;2022-10-16T04:08:31;146.57;;;140.82;;
52620;SDS011;38515;53.160;6.990;2022-10-16T04:11:00;144.90;;;138.93;;
52620;SDS011;38515;53.160;6.990;2022-10-16T04:13:26;158.77;;;152.50;;
52620;SDS011;38515;53.160;6.990;2022-10-16T04:15:52;121.50;;;116.75;;
52620;SDS011;38515;53.160;6.990;2022-10-16T04:18:17;180.18;;;172.90;;
52620;SDS011;38515;53.160;6.990;2022-10-16T04:20:43;153.85;;;147.85;;
52620;SDS011;38515;53.160;6.990;2022-10-16T04:23:09;162.85;;;156.20;;
52620;SDS011;38515;53.160;6.990;2022-10-16T04:25:35;112.60;;;107.97;;
52620;SDS011;38515;53.160;6.990;2022-10-16T04:28:01;180.02;;;172.32;;
52620;SDS011;38515;53.160;6.990;2022-10-16T04:30:27;182.88;;;175.43;;
52620;SDS011;38515;53.160;6.990;2022-10-16T04:32:53;211.73;;;203.07;;
52620;SDS011;38515;53.160;6.990;2022-10-16T04:35:19;211.20;;;202.48;;
52620;SDS011;38515;53.160;6.990;2022-10-16T04:37:46;233.98;;;224.45;;
52620;SDS011;38515;53.160;6.990;2022-10-16T04:40:12;260.80;;;249.82;;
52620;SDS011;38515;53.160;6.990;2022-10-16T04:42:38;251.80;;;241.13;;
52620;SDS011;38515;53.160;6.990;2022-10-16T04:45:05;265.45;;;254.05;;
52620;SDS011;38515;53.160;6.990;2022-10-16T04:47:32;266.65;;;255.50;;
52620;SDS011;38515;53.160;6.990;2022-10-16T04:49:58;247.90;;;237.68;;
52620;SDS011;38515;53.160;6.990;2022-10-16T04:52:26;286.13;;;274.45;;
52620;SDS011;38515;53.160;6.990;2022-10-16T04:54:52;274.27;;;263.20;;
52620;SDS011;38515;53.160;6.990;2022-10-16T04:57:19;235.25;;;225.57;;
52620;SDS011;38515;53.160;6.990;2022-10-16T04:59:44;276.02;;;264.60;;
52620;SDS011;38515;53.160;6.990;2022-10-16T05:02:10;305.95;;;292.98;;
52620;SDS011;38515;53.160;6.990;2022-10-16T05:04:36;242.55;;;232.60;;
52620;SDS011;38515;53.160;6.990;2022-10-16T05:07:02;252.77;;;242.68;;
52620;SDS011;38515;53.160;6.990;2022-10-16T05:09:28;206.13;;;197.85;;
52620;SDS011;38515;53.160;6.990;2022-10-16T05:11:54;207.23;;;198.88;;
52620;SDS011;38515;53.160;6.990;2022-10-16T05:14:20;202.95;;;194.60;;
52620;SDS011;38515;53.160;6.990;2022-10-16T05:16:45;165.05;;;157.52;;
52620;SDS011;38515;53.160;6.990;2022-10-16T05:19:13;177.57;;;170.65;;
52620;SDS011;38515;53.160;6.990;2022-10-16T05:21:39;156.05;;;149.68;;
52620;SDS011;38515;53.160;6.990;2022-10-16T05:24:04;139.82;;;133.88;;
52620;SDS011;38515;53.160;6.990;2022-10-16T05:26:30;159.93;;;153.70;;
52620;SDS011;38515;53.160;6.990;2022-10-16T05:28:56;179.07;;;172.05;;
52620;SDS011;38515;53.160;6.990;2022-10-16T05:31:22;184.60;;;177.30;;
52620;SDS011;38515;53.160;6.990;2022-10-16T05:33:47;215.10;;;206.60;;
52620;SDS011;38515;53.160;6.990;2022-10-16T05:36:13;194.35;;;186.45;;
52620;SDS011;38515;53.160;6.990;2022-10-16T05:38:39;161.73;;;154.82;;
52620;SDS011;38515;53.160;6.990;2022-10-16T05:41:05;186.85;;;179.02;;
52620;SDS011;38515;53.160;6.990;2022-10-16T05:43:31;152.38;;;145.75;;
52620;SDS011;38515;53.160;6.990;2022-10-16T05:45:58;209.63;;;201.10;;
52620;SDS011;38515;53.160;6.990;2022-10-16T05:48:26;231.85;;;222.52;;
52620;SDS011;38515;53.160;6.990;2022-10-16T05:50:59;197.23;;;189.27;;
52620;SDS011;38515;53.160;6.990;2022-10-16T05:55:55;224.50;;;214.85;;
52620;SDS011;38515;53.160;6.990;2022-10-16T05:58:21;202.63;;;194.65;;
52620;SDS011;38515;53.160;6.990;2022-10-16T06:00:52;216.10;;;207.35;;
52620;SDS011;38515;53.160;6.990;2022-10-16T06:03:20;222.13;;;213.20;;
52620;SDS011;38515;53.160;6.990;2022-10-16T06:05:46;279.80;;;268.35;;
52620;SDS011;38515;53.160;6.990;2022-10-16T06:08:11;231.77;;;222.55;;
52620;SDS011;38515;53.160;6.990;2022-10-16T06:10:37;207.95;;;199.68;;
52620;SDS011;38515;53.160;6.990;2022-10-16T06:13:03;264.23;;;253.45;;
52620;SDS011;38515;53.160;6.990;2022-10-16T06:15:29;235.13;;;225.43;;
52620;SDS011;38515;53.160;6.990;2022-10-16T06:17:55;204.00;;;195.88;;
52620;SDS011;38515;53.160;6.990;2022-10-16T06:20:21;206.23;;;197.55;;
52620;SDS011;38515;53.160;6.990;2022-10-16T06:22:47;187.48;;;180.18;;
52620;SDS011;38515;53.160;6.990;2022-10-16T06:25:12;175.48;;;167.77;;
52620;SDS011;38515;53.160;6.990;2022-10-16T06:27:40;191.23;;;183.18;;
52620;SDS011;38515;53.160;6.990;2022-10-16T06:30:06;164.82;;;158.20;;
52620;SDS011;38515;53.160;6.990;2022-10-16T06:32:32;144.48;;;137.75;;
52620;SDS011;38515;53.160;6.990;2022-10-16T06:34:58;179.85;;;172.85;;
52620;SDS011;38515;53.160;6.990;2022-10-16T06:37:24;195.38;;;187.57;;
52620;SDS011;38515;53.160;6.990;2022-10-16T06:39:50;197.05;;;188.82;;
52620;SDS011;38515;53.160;6.990;2022-10-16T06:42:17;228.13;;;218.38;;
52620;SDS011;38515;53.160;6.990;2022-10-16T06:44:44;199.82;;;191.73;;
52620;SDS011;38515;53.160;6.990;2022-10-16T06:47:10;204.52;;;196.27;;
52620;SDS011;38515;53.160;6.990;2022-10-16T06:49:36;178.68;;;171.27;;
52620;SDS011;38515;53.160;6.990;2022-10-16T06:52:02;177.05;;;169.65;;
52620;SDS011;38515;53.160;6.990;2022-10-16T06:54:28;221.38;;;212.35;;
52620;SDS011;38515;53.160;6.990;2022-10-16T06:56:54;217.05;;;208.30;;
52620;SDS011;38515;53.160;6.990;2022-10-16T06:59:20;259.67;;;249.00;;
52620;SDS011;38515;53.160;6.990;2022-10-16T07:01:47;272.42;;;260.95;;
52620;SDS011;38515;53.160;6.990;2022-10-16T07:04:13;305.98;;;293.08;;
52620;SDS011;38515;53.160;6.990;2022-10-16T07:06:39;279.23;;;267.27;;
52620;SDS011;38515;53.160;6.990;2022-10-16T07:09:06;249.38;;;239.43;;
52620;SDS011;38515;53.160;6.990;2022-10-16T07:11:36;304.33;;;291.15;;
52620;SDS011;38515;53.160;6.990;2022-10-16T07:14:03;294.98;;;282.70;;
52620;SDS011;38515;53.160;6.990;2022-10-16T07:16:30;267.95;;;256.73;;
52620;SDS011;38515;53.160;6.990;2022-10-16T07:18:58;249.18;;;238.77;;
52620;SDS011;38515;53.160;6.990;2022-10-16T07:21:27;289.50;;;277.52;;
52620;SDS011;38515;53.160;6.990;2022-10-16T07:23:54;254.55;;;244.02;;
52620;SDS011;38515;53.160;6.990;2022-10-16T07:26:23;308.55;;;295.50;;
52620;SDS011;38515;53.160;6.990;2022-10-16T07:28:49;306.73;;;293.42;;
52620;SDS011;38515;53.160;6.990;2022-10-16T07:31:16;247.25;;;236.48;;
52620;SDS011;38515;53.160;6.990;2022-10-16T07:33:43;244.15;;;233.45;;
52620;SDS011;38515;53.160;6.990;2022-10-16T07:36:12;221.07;;;211.93;;
52620;SDS011;38515;53.160;6.990;2022-10-16T07:38:38;215.93;;;206.75;;
52620;SDS011;38515;53.160;6.990;2022-10-16T07:41:05;200.75;;;192.20;;
52620;SDS011;38515;53.160;6.990;2022-10-16T07:43:33;222.27;;;212.50;;
52620;SDS011;38515;53.160;6.990;2022-10-16T07:45:59;171.10;;;163.98;;
52620;SDS011;38515;53.160;6.990;2022-10-16T07:48:27;85.18;;;81.63;;
52620;SDS011;38515;53.160;6.990;2022-10-16T07:50:59;78.13;;;74.88;;
52620;SDS011;38515;53.160;6.990;2022-10-16T07:53:26;77.97;;;74.82;;
52620;SDS011;38515;53.160;6.990;2022-10-16T07:55:56;44.80;;;42.38;;
52620;SDS011;38515;53.160;6.990;2022-10-16T07:58:24;41.50;;;38.28;;
52620;SDS011;38515;53.160;6.990;2022-10-16T08:00:50;45.72;;;43.88;;
52620;SDS011;38515;53.160;6.990;2022-10-16T08:03:17;46.53;;;44.38;;
52620;SDS011;38515;53.160;6.990;2022-10-16T08:05:42;62.30;;;59.55;;
52620;SDS011;38515;53.160;6.990;2022-10-16T08:08:11;56.88;;;53.85;;
52620;SDS011;38515;53.160;6.990;2022-10-16T08:10:39;59.03;;;55.90;;
52620;SDS011;38515;53.160;6.990;2022-10-16T08:13:05;39.25;;;37.10;;
52620;SDS011;38515;53.160;6.990;2022-10-16T08:15:30;47.63;;;45.00;;
52620;SDS011;38515;53.160;6.990;2022-10-16T08:17:57;45.97;;;43.78;;
52620;SDS011;38515;53.160;6.990;2022-10-16T08:20:26;52.78;;;49.97;;
52620;SDS011;38515;53.160;6.990;2022-10-16T08:22:52;49.75;;;47.60;;
52620;SDS011;38515;53.160;6.990;2022-10-16T08:25:20;57.17;;;54.53;;
52620;SDS011;38515;53.160;6.990;2022-10-16T08:27:47;56.83;;;54.30;;
52620;SDS011;38515;53.160;6.990;2022-10-16T08:30:13;49.38;;;46.72;;
52620;SDS011;38515;53.160;6.990;2022-10-16T08:32:39;62.63;;;59.40;;
52620;SDS011;38515;53.160;6.990;2022-10-16T08:35:07;52.67;;;50.13;;
52620;SDS011;38515;53.160;6.990;2022-10-16T08:37:34;61.50;;;58.47;;
52620;SDS011;38515;53.160;6.990;2022-10-16T08:40:00;43.25;;;40.38;;
52620;SDS011;38515;53.160;6.990;2022-10-16T08:45:02;56.20;;;53.72;;
52620;SDS011;38515;53.160;6.990;2022-10-16T08:48:06;77.93;;;74.53;;
52620;SDS011;38515;53.160;6.990;2022-10-16T08:50:41;75.38;;;72.18;;
52620;SDS011;38515;53.160;6.990;2022-10-16T08:53:09;76.78;;;73.80;;
52620;SDS011;38515;53.160;6.990;2022-10-16T08:55:44;68.25;;;64.90;;
52620;SDS011;38515;53.160;6.990;2022-10-16T08:58:17;62.30;;;59.53;;
52620;SDS011;38515;53.160;6.990;2022-10-16T09:00:47;37.92;;;35.88;;
52620;SDS011;38515;53.160;6.990;2022-10-16T09:03:17;38.67;;;36.78;;
52620;SDS011;38515;53.160;6.990;2022-10-16T09:08:41;34.30;;;32.60;;
52620;SDS011;38515;53.160;6.990;2022-10-16T09:11:34;35.53;;;33.72;;
52620;SDS011;38515;53.160;6.990;2022-10-16T09:17:16;33.85;;;32.08;;
52620;SDS011;38515;53.160;6.990;2022-10-16T09:19:58;39.95;;;37.65;;
52620;SDS011;38515;53.160;6.990;2022-10-16T09:22:43;36.42;;;34.05;;
52620;SDS011;38515;53.160;6.990;2022-10-16T09:25:10;35.15;;;33.42;;
52620;SDS011;38515;53.160;6.990;2022-10-16T09:27:42;38.38;;;36.33;;
52620;SDS011;38515;53.160;6.990;2022-10-16T09:30:13;37.50;;;34.78;;
52620;SDS011;38515;53.160;6.990;2022-10-16T09:32:41;33.92;;;31.40;;
52620;SDS011;38515;53.160;6.990;2022-10-16T09:35:11;39.05;;;36.10;;
52620;SDS011;38515;53.160;6.990;2022-10-16T09:37:42;37.60;;;35.17;;
52620;SDS011;38515;53.160;6.990;2022-10-16T09:40:13;36.17;;;32.05;;
52620;SDS011;38515;53.160;6.990;2022-10-16T09:42:57;34.70;;;32.67;;
52620;SDS011;38515;53.160;6.990;2022-10-16T09:45:31;30.70;;;29.25;;
52620;SDS011;38515;53.160;6.990;2022-10-16T09:47:57;35.40;;;33.17;;
52620;SDS011;38515;53.160;6.990;2022-10-16T09:50:27;33.22;;;31.42;;
52620;SDS011;38515;53.160;6.990;2022-10-16T09:53:03;35.63;;;33.70;;
52620;SDS011;38515;53.160;6.990;2022-10-16T09:55:33;40.50;;;36.83;;
52620;SDS011;38515;53.160;6.990;2022-10-16T09:57:59;35.47;;;32.92;;
52620;SDS011;38515;53.160;6.990;2022-10-16T10:00:25;34.85;;;32.92;;
52620;SDS011;38515;53.160;6.990;2022-10-16T10:02:52;37.97;;;35.70;;
52620;SDS011;38515;53.160;6.990;2022-10-16T10:05:22;37.80;;;36.00;;
52620;SDS011;38515;53.160;6.990;2022-10-16T10:07:54;37.35;;;35.45;;
52620;SDS011;38515;53.160;6.990;2022-10-16T10:10:24;38.40;;;36.20;;
52620;SDS011;38515;53.160;6.990;2022-10-16T10:12:54;36.88;;;34.80;;
52620;SDS011;38515;53.160;6.990;2022-10-16T10:15:21;38.13;;;35.90;;
52620;SDS011;38515;53.160;6.990;2022-10-16T10:17:51;37.40;;;34.65;;
52620;SDS011;38515;53.160;6.990;2022-10-16T10:22:59;39.72;;;37.33;;
52620;SDS011;38515;53.160;6.990;2022-10-16T10:28:16;42.17;;;39.40;;
52620;SDS011;38515;53.160;6.990;2022-10-16T10:31:17;29.42;;;27.63;;
52620;SDS011;38515;53.160;6.990;2022-10-16T10:34:07;23.95;;;22.25;;
52620;SDS011;38515;53.160;6.990;2022-10-16T10:36:45;30.10;;;28.40;;
52620;SDS011;38515;53.160;6.990;2022-10-16T10:39:31;36.67;;;33.65;;
52620;SDS011;38515;53.160;6.990;2022-10-16T10:47:07;30.25;;;28.33;;
52620;SDS011;38515;53.160;6.990;2022-10-16T10:50:08;33.80;;;31.08;;
52620;SDS011;38515;53.160;6.990;2022-10-16T10:52:53;28.15;;;25.48;;
52620;SDS011;38515;53.160;6.990;2022-10-16T10:55:38;24.08;;;22.27;;
52620;SDS011;38515;53.160;6.990;2022-10-16T10:58:24;29.40;;;26.67;;
52620;SDS011;38515;53.160;6.990;2022-10-16T11:01:06;34.65;;;32.20;;
52620;SDS011;38515;53.160;6.990;2022-10-16T11:03:56;33.50;;;30.15;;
52620;SDS011;38515;53.160;6.990;2022-10-16T11:06:36;33.05;;;31.15;;
52620;SDS011;38515;53.160;6.990;2022-10-16T11:09:10;41.30;;;38.47;;
52620;SDS011;38515;53.160;6.990;2022-10-16T11:14:11;27.75;;;25.77;;
52620;SDS011;38515;53.160;6.990;2022-10-16T11:16:43;25.75;;;23.25;;
52620;SDS011;38515;53.160;6.990;2022-10-16T11:22:12;32.97;;;30.67;;
52620;SDS011;38515;53.160;6.990;2022-10-16T11:24:45;31.88;;;28.83;;
52620;SDS011;38515;53.160;6.990;2022-10-16T11:27:19;26.08;;;24.15;;
52620;SDS011;38515;53.160;6.990;2022-10-16T11:29:55;27.38;;;24.98;;
52620;SDS011;38515;53.160;6.990;2022-10-16T11:32:32;29.20;;;26.75;;
52620;SDS011;38515;53.160;6.990;2022-10-16T11:35:06;34.42;;;32.40;;
52620;SDS011;38515;53.160;6.990;2022-10-16T11:37:47;35.88;;;33.20;;
52620;SDS011;38515;53.160;6.990;2022-10-16T11:40:22;21.10;;;19.30;;
52620;SDS011;38515;53.160;6.990;2022-10-16T11:42:57;30.00;;;28.10;;
52620;SDS011;38515;53.160;6.990;2022-10-16T11:45:42;21.10;;;19.23;;
52620;SDS011;38515;53.160;6.990;2022-10-16T11:50:54;30.27;;;27.80;;
52620;SDS011;38515;53.160;6.990;2022-10-16T11:55:49;29.27;;;26.77;;
52620;SDS011;38515;53.160;6.990;2022-10-16T11:58:27;29.33;;;27.55;;
52620;SDS011;38515;53.160;6.990;2022-10-16T12:03:42;24.35;;;22.17;;
52620;SDS011;38515;53.160;6.990;2022-10-16T12:06:29;26.08;;;24.33;;
52620;SDS011;38515;53.160;6.990;2022-10-16T12:08:58;33.53;;;31.05;;
52620;SDS011;38515;53.160;6.990;2022-10-16T12:14:04;30.85;;;28.40;;
52620;SDS011;38515;53.160;6.990;2022-10-16T12:16:32;26.98;;;24.67;;
52620;SDS011;38515;53.160;6.990;2022-10-16T12:19:11;29.33;;;27.27;;
52620;SDS011;38515;53.160;6.990;2022-10-16T12:21:39;30.92;;;28.25;;
52620;SDS011;38515;53.160;6.990;2022-10-16T12:24:06;24.27;;;22.35;;
52620;SDS011;38515;53.160;6.990;2022-10-16T12:26:52;30.77;;;27.92;;
52620;SDS011;38515;53.160;6.990;2022-10-16T12:29:28;20.05;;;18.55;;
52620;SDS011;38515;53.160;6.990;2022-10-16T12:32:04;27.40;;;23.10;;
52620;SDS011;38515;53.160;6.990;2022-10-16T12:34:44;22.27;;;20.75;;
52620;SDS011;38515;53.160;6.990;2022-10-16T12:37:13;25.63;;;23.55;;
52620;SDS011;38515;53.160;6.990;2022-10-16T12:39:46;25.20;;;23.10;;
52620;SDS011;38515;53.160;6.990;2022-10-16T12:44:53;25.15;;;23.30;;
52620;SDS011;38515;53.160;6.990;2022-10-16T12:49:49;21.83;;;19.75;;
52620;SDS011;38515;53.160;6.990;2022-10-16T12:52:23;21.13;;;19.45;;
52620;SDS011;38515;53.160;6.990;2022-10-16T12:54:52;28.42;;;26.35;;
52620;SDS011;38515;53.160;6.990;2022-10-16T12:57:29;33.00;;;30.52;;
52620;SDS011;38515;53.160;6.990;2022-10-16T13:05:26;22.10;;;20.60;;
52620;SDS011;38515;53.160;6.990;2022-10-16T13:15:52;53.30;;;50.58;;
52620;SDS011;38515;53.160;6.990;2022-10-16T13:18:25;46.33;;;42.97;;
52620;SDS011;38515;53.160;6.990;2022-10-16T13:21:01;53.50;;;50.45;;
52620;SDS011;38515;53.160;6.990;2022-10-16T13:23:41;55.88;;;52.40;;
52620;SDS011;38515;53.160;6.990;2022-10-16T13:28:40;47.38;;;44.90;;
52620;SDS011;38515;53.160;6.990;2022-10-16T13:31:10;47.40;;;44.55;;
52620;SDS011;38515;53.160;6.990;2022-10-16T13:33:45;46.92;;;44.67;;
52620;SDS011;38515;53.160;6.990;2022-10-16T13:36:18;45.85;;;43.08;;
52620;SDS011;38515;53.160;6.990;2022-10-16T13:38:47;45.38;;;43.08;;
52620;SDS011;38515;53.160;6.990;2022-10-16T13:41:15;47.03;;;43.90;;
52620;SDS011;38515;53.160;6.990;2022-10-16T13:43:43;48.47;;;45.35;;
52620;SDS011;38515;53.160;6.990;2022-10-16T13:49:11;46.42;;;44.05;;
52620;SDS011;38515;53.160;6.990;2022-10-16T13:51:37;48.47;;;45.55;;
52620;SDS011;38515;53.160;6.990;2022-10-16T13:54:02;49.75;;;45.95;;
52620;SDS011;38515;53.160;6.990;2022-10-16T13:56:29;43.42;;;41.03;;
52620;SDS011;38515;53.160;6.990;2022-10-16T13:58:59;48.88;;;46.47;;
52620;SDS011;38515;53.160;6.990;2022-10-16T14:01:33;47.35;;;44.53;;
52620;SDS011;38515;53.160;6.990;2022-10-16T14:04:06;41.30;;;38.83;;
52620;SDS011;38515;53.160;6.990;2022-10-16T14:06:35;41.97;;;39.85;;
52620;SDS011;38515;53.160;6.990;2022-10-16T14:09:05;39.50;;;36.45;;
52620;SDS011;38515;53.160;6.990;2022-10-16T14:11:33;42.65;;;39.22;;
52620;SDS011;38515;53.160;6.990;2022-10-16T14:14:10;40.30;;;38.08;;
52620;SDS011;38515;53.160;6.990;2022-10-16T14:16:37;39.67;;;37.47;;
52620;SDS011;38515;53.160;6.990;2022-10-16T14:19:13;39.30;;;36.92;;
52620;SDS011;38515;53.160;6.990;2022-10-16T14:21:44;34.95;;;33.15;;
52620;SDS011;38515;53.160;6.990;2022-10-16T14:24:11;34.97;;;32.88;;
52620;SDS011;38515;53.160;6.990;2022-10-16T14:26:40;35.95;;;33.85;;
52620;SDS011;38515;53.160;6.990;2022-10-16T14:29:10;32.35;;;30.45;;
52620;SDS011;38515;53.160;6.990;2022-10-16T14:31:38;38.03;;;35.83;;
52620;SDS011;38515;53.160;6.990;2022-10-16T14:34:22;35.28;;;32.78;;
52620;SDS011;38515;53.160;6.990;2022-10-16T14:36:49;38.08;;;35.35;;
52620;SDS011;38515;53.160;6.990;2022-10-16T14:39:22;36.55;;;34.30;;
52620;SDS011;38515;53.160;6.990;2022-10-16T14:41:50;32.05;;;30.10;;
52620;SDS011;38515;53.160;6.990;2022-10-16T14:44:17;33.97;;;31.00;;
52620;SDS011;38515;53.160;6.990;2022-10-16T14:46:45;34.92;;;33.03;;
52620;SDS011;38515;53.160;6.990;2022-10-16T14:51:38;36.65;;;34.13;;
52620;SDS011;38515;53.160;6.990;2022-10-16T14:54:12;23.45;;;19.55;;
52620;SDS011;38515;53.160;6.990;2022-10-16T14:56:43;24.10;;;21.55;;
52620;SDS011;38515;53.160;6.990;2022-10-16T14:59:15;20.77;;;18.97;;
52620;SDS011;38515;53.160;6.990;2022-10-16T15:01:44;21.30;;;19.35;;
52620;SDS011;38515;53.160;6.990;2022-10-16T15:04:11;21.23;;;17.98;;
52620;SDS011;38515;53.160;6.990;2022-10-16T15:06:38;22.58;;;20.25;;
52620;SDS011;38515;53.160;6.990;2022-10-16T15:09:04;22.10;;;20.38;;
52620;SDS011;38515;53.160;6.990;2022-10-16T15:11:31;24.55;;;22.33;;
52620;SDS011;38515;53.160;6.990;2022-10-16T15:13:58;26.08;;;24.00;;
52620;SDS011;38515;53.160;6.990;2022-10-16T15:16:24;35.17;;;31.00;;
52620;SDS011;38515;53.160;6.990;2022-10-16T15:18:50;31.00;;;28.27;;
52620;SDS011;38515;53.160;6.990;2022-10-16T15:21:24;32.05;;;28.98;;
52620;SDS011;38515;53.160;6.990;2022-10-16T15:23:52;26.50;;;24.35;;
52620;SDS011;38515;53.160;6.990;2022-10-16T15:26:19;27.40;;;24.45;;
52620;SDS011;38515;53.160;6.990;2022-10-16T15:28:45;27.65;;;25.15;;
52620;SDS011;38515;53.160;6.990;2022-10-16T15:31:11;24.38;;;22.05;;
52620;SDS011;38515;53.160;6.990;2022-10-16T15:33:38;27.45;;;25.52;;